Time;durP1;ratioP1;P1;durP2;ratioP2;P2;SDS_P1;SDS_P2;PMS_P1;PMS_P2;Temp;Humidity;BMP_temperature;BMP_pressure;BME280_temperature;BME280_humidity;BME280_pressure;Samples;Min_cycle;Max_cycle;Signal;HPM_P1;HPM_P2
2021/12/01 00:01:04;;;;;;;70.47;29.52;;;9.30;99.90;;;;;;6258508;22;20011;-82
2021/12/01 00:03:30;;;;;;;58.35;26.95;;;9.40;99.90;;;;;;6258310;22;20019;-82
2021/12/01 00:05:55;;;;;;;67.35;28.95;;;9.40;99.90;;;;;;6258455;22;20090;-82
2021/12/01 00:08:22;;;;;;;67.05;26.70;;;9.30;99.90;;;;;;6258059;22;20308;-80
2021/12/01 00:10:47;;;;;;;71.05;27.35;;;9.30;99.90;;;;;;6257572;22;20015;-84
2021/12/01 00:13:16;;;;;;;58.17;25.27;;;9.40;99.90;;;;;;6258336;22;20018;-84
2021/12/01 00:15:45;;;;;;;58.90;26.42;;;9.30;99.90;;;;;;6283884;22;20069;-84
2021/12/01 00:18:12;;;;;;;60.22;23.55;;;9.20;99.90;;;;;;6258019;22;20148;-81
2021/12/01 00:20:38;;;;;;;56.20;22.35;;;9.20;99.90;;;;;;6283734;22;20366;-83
2021/12/01 00:23:04;;;;;;;42.70;21.25;;;9.10;99.90;;;;;;6283309;22;20011;-82
2021/12/01 00:25:31;;;;;;;53.65;21.73;;;9.30;99.90;;;;;;6257936;22;20122;-82
2021/12/01 00:27:56;;;;;;;56.33;22.73;;;9.20;99.90;;;;;;6257751;22;20007;-82
2021/12/01 00:30:23;;;;;;;54.78;22.88;;;9.20;99.90;;;;;;6258058;22;20088;-84
2021/12/01 00:32:48;;;;;;;52.40;21.13;;;9.20;99.90;;;;;;6283659;22;20314;-84
2021/12/01 00:35:14;;;;;;;52.05;22.10;;;9.20;99.90;;;;;;6283562;22;20011;-82
2021/12/01 00:37:42;;;;;;;51.25;21.95;;;9.10;99.90;;;;;;6294233;22;20015;-84
2021/12/01 00:40:10;;;;;;;53.67;23.20;;;9.20;99.90;;;;;;6282837;22;20102;-84
2021/12/01 00:42:35;;;;;;;60.35;22.85;;;9.10;99.90;;;;;;6282749;22;20015;-80
2021/12/01 00:45:07;;;;;;;48.72;19.92;;;9.10;99.90;;;;;;6283132;22;20024;-82
2021/12/01 00:47:43;;;;;;;43.55;20.77;;;9.00;99.90;;;;;;6283463;22;20023;-81
2021/12/01 00:50:18;;;;;;;46.53;19.92;;;9.00;99.90;;;;;;6283174;22;20073;-81
2021/12/01 00:52:44;;;;;;;54.92;21.10;;;9.00;99.90;;;;;;6283038;22;20289;-83
2021/12/01 00:55:10;;;;;;;42.40;20.30;;;9.00;99.90;;;;;;6276070;22;20102;-84
2021/12/01 00:57:36;;;;;;;46.20;19.63;;;9.00;99.90;;;;;;6309021;22;20022;-82
2021/12/01 01:00:06;;;;;;;47.65;19.58;;;9.10;99.90;;;;;;6308704;22;20016;-82
2021/12/01 01:02:31;;;;;;;44.63;20.40;;;9.10;99.90;;;;;;6282746;22;20015;-84
2021/12/01 01:04:57;;;;;;;47.95;20.58;;;9.10;99.90;;;;;;6282818;22;20053;-81
2021/12/01 01:07:23;;;;;;;45.55;20.27;;;9.00;99.90;;;;;;6309070;22;20019;-82
2021/12/01 01:09:48;;;;;;;35.50;17.52;;;9.00;99.90;;;;;;6309092;22;20015;-83
2021/12/01 01:17:51;;;;;;;45.67;19.25;;;9.00;99.90;;;;;;6309254;22;20054;-83
2021/12/01 01:20:16;;;;;;;38.70;17.73;;;9.10;99.90;;;;;;6283172;22;20015;-81
2021/12/01 01:22:42;;;;;;;35.60;16.90;;;9.10;99.90;;;;;;6283010;22;20076;-82
2021/12/01 01:25:10;;;;;;;32.85;15.82;;;9.10;99.90;;;;;;6308491;22;20011;-83
2021/12/01 01:27:36;;;;;;;39.95;15.98;;;9.10;99.90;;;;;;6308537;22;20049;-82
2021/12/01 01:30:03;;;;;;;44.15;16.40;;;9.10;99.90;;;;;;6282912;22;20431;-81
2021/12/01 01:32:28;;;;;;;28.42;12.90;;;9.10;99.90;;;;;;6282897;22;20015;-81
2021/12/01 01:34:54;;;;;;;30.33;13.15;;;9.10;99.90;;;;;;6308726;22;20089;-81
2021/12/01 01:37:20;;;;;;;34.78;10.27;;;9.20;99.90;;;;;;6283046;22;20019;-84
2021/12/01 01:39:46;;;;;;;22.52;10.18;;;9.20;99.90;;;;;;6282612;22;20479;-81
2021/12/01 01:42:12;;;;;;;26.10;8.45;;;9.30;99.90;;;;;;6282369;22;20084;-81
2021/12/01 01:44:37;;;;;;;20.75;8.52;;;9.40;99.90;;;;;;6308117;22;20404;-81
2021/12/01 01:47:03;;;;;;;26.05;8.90;;;9.40;99.90;;;;;;6282394;22;20320;-82
2021/12/01 01:52:06;;;;;;;24.55;7.32;;;9.40;99.90;;;;;;6308239;22;20078;-82
2021/12/01 01:54:32;;;;;;;22.60;8.02;;;9.50;99.90;;;;;;6308523;22;20027;-84
2021/12/01 01:56:58;;;;;;;16.92;7.15;;;9.60;99.90;;;;;;6308082;22;20022;-81
2021/12/01 01:59:23;;;;;;;20.40;6.85;;;9.50;99.90;;;;;;6327194;22;20412;-83
2021/12/01 02:01:55;;;;;;;25.58;5.88;;;9.50;99.90;;;;;;6308343;22;20431;-81
2021/12/01 02:04:22;;;;;;;23.27;5.18;;;9.60;99.90;;;;;;6308605;22;20016;-81
2021/12/01 02:06:49;;;;;;;21.60;5.60;;;9.50;99.90;;;;;;6282824;22;20018;-83
2021/12/01 02:09:18;;;;;;;24.95;6.40;;;9.60;99.90;;;;;;6282634;22;20015;-82
2021/12/01 02:11:44;;;;;;;17.20;5.32;;;9.60;99.90;;;;;;6282293;22;20038;-82
2021/12/01 02:14:10;;;;;;;20.75;5.25;;;9.50;99.90;;;;;;6282715;22;20019;-83
2021/12/01 02:16:37;;;;;;;20.45;4.57;;;9.50;99.90;;;;;;6307329;22;20296;-82
2021/12/01 02:19:03;;;;;;;9.52;3.60;;;9.50;99.90;;;;;;6308547;22;20030;-83
2021/12/01 02:21:31;;;;;;;17.42;4.68;;;9.70;99.90;;;;;;6307914;22;20011;-81
2021/12/01 02:24:00;;;;;;;19.30;5.00;;;9.60;99.90;;;;;;6282416;22;20426;-83
2021/12/01 02:26:28;;;;;;;17.65;3.47;;;9.60;99.90;;;;;;6282522;22;20049;-83
2021/12/01 02:28:57;;;;;;;19.50;4.22;;;9.60;99.90;;;;;;6282967;22;20018;-84
2021/12/01 02:31:28;;;;;;;14.70;4.00;;;9.60;99.90;;;;;;6282403;22;20030;-83
2021/12/01 02:33:55;;;;;;;19.08;5.03;;;9.50;99.90;;;;;;6282908;22;20015;-83
2021/12/01 02:36:20;;;;;;;16.23;4.38;;;9.60;99.90;;;;;;6308349;22;20015;-83
2021/12/01 02:38:48;;;;;;;16.65;4.20;;;9.50;99.90;;;;;;6300369;22;20019;-82
2021/12/01 02:41:14;;;;;;;16.08;4.72;;;9.50;99.90;;;;;;6308500;22;20113;-82
2021/12/01 02:43:40;;;;;;;14.82;3.83;;;9.50;99.90;;;;;;6282438;22;20017;-84
2021/12/01 02:46:06;;;;;;;18.92;3.83;;;9.50;99.90;;;;;;6308141;22;20011;-85
2021/12/01 02:48:35;;;;;;;18.30;3.67;;;9.60;99.90;;;;;;6282386;22;20061;-81
2021/12/01 02:51:04;;;;;;;20.90;4.20;;;9.60;99.90;;;;;;6282272;22;20093;-82
2021/12/01 02:53:30;;;;;;;17.33;4.57;;;9.70;99.90;;;;;;6282266;22;20012;-82
2021/12/01 02:56:02;;;;;;;20.45;3.92;;;9.60;99.90;;;;;;6308302;22;20030;-82
2021/12/01 02:58:31;;;;;;;18.50;4.10;;;9.70;99.90;;;;;;6282440;22;20080;-81
2021/12/01 03:00:59;;;;;;;20.65;3.63;;;9.70;99.90;;;;;;6282039;22;20054;-85
2021/12/01 03:03:25;;;;;;;22.17;4.13;;;9.80;99.90;;;;;;6282312;22;20018;-81
2021/12/01 03:05:51;;;;;;;21.23;4.45;;;9.80;99.90;;;;;;6282193;22;20030;-83
2021/12/01 03:08:19;;;;;;;14.35;3.80;;;9.80;99.90;;;;;;6281898;22;20007;-82
2021/12/01 03:10:48;;;;;;;18.60;3.80;;;9.80;99.90;;;;;;6307952;22;20023;-82
2021/12/01 03:13:15;;;;;;;29.13;5.38;;;9.70;99.90;;;;;;6282355;22;20031;-84
2021/12/01 03:15:41;;;;;;;22.30;4.38;;;9.70;99.90;;;;;;6282212;22;20015;-81
2021/12/01 03:18:07;;;;;;;11.48;3.75;;;9.60;99.90;;;;;;6282293;22;20011;-82
2021/12/01 03:20:33;;;;;;;21.90;4.38;;;9.60;99.90;;;;;;6307723;22;20102;-82
2021/12/01 03:22:59;;;;;;;20.15;4.05;;;9.60;99.90;;;;;;6308224;22;20456;-83
2021/12/01 03:25:27;;;;;;;20.08;3.95;;;9.60;99.90;;;;;;6307671;22;20007;-83
2021/12/01 03:27:52;;;;;;;17.88;4.20;;;9.60;99.90;;;;;;6310748;22;20023;-83
2021/12/01 03:30:18;;;;;;;14.80;3.80;;;9.50;99.90;;;;;;6309938;22;20101;-81
2021/12/01 03:32:44;;;;;;;20.98;4.43;;;9.50;99.90;;;;;;6309469;22;20073;-82
2021/12/01 03:35:13;;;;;;;20.38;4.30;;;9.60;99.90;;;;;;6309931;22;20019;-81
2021/12/01 03:37:41;;;;;;;24.83;4.32;;;9.60;99.90;;;;;;6309419;22;20038;-82
2021/12/01 03:40:09;;;;;;;21.65;4.97;;;9.60;99.90;;;;;;6284332;22;20023;-83
2021/12/01 03:42:34;;;;;;;27.00;5.00;;;9.60;99.90;;;;;;6283673;22;20015;-84
2021/12/01 03:45:00;;;;;;;30.95;5.65;;;9.60;99.90;;;;;;6309540;22;20019;-83
2021/12/01 03:47:27;;;;;;;25.02;4.80;;;9.70;99.90;;;;;;6309072;22;20022;-83
2021/12/01 03:49:53;;;;;;;31.67;5.10;;;9.70;99.90;;;;;;6284104;22;20098;-83
2021/12/01 03:52:20;;;;;;;28.10;6.53;;;9.60;99.90;;;;;;6284077;22;20011;-84
2021/12/01 03:54:47;;;;;;;26.30;4.68;;;9.60;99.90;;;;;;6283496;22;20015;-82
2021/12/01 03:57:13;;;;;;;34.15;6.35;;;9.60;99.90;;;;;;6309284;22;20080;-86
2021/12/01 03:59:39;;;;;;;37.05;5.28;;;9.60;99.90;;;;;;6283777;22;20427;-82
2021/12/01 04:02:05;;;;;;;26.40;6.97;;;9.50;99.90;;;;;;6309322;22;20052;-82
2021/12/01 04:04:31;;;;;;;28.40;7.20;;;9.60;99.90;;;;;;6309235;22;20015;-86
2021/12/01 04:06:57;;;;;;;36.53;6.30;;;9.50;99.90;;;;;;6283818;22;20492;-83
2021/12/01 04:09:27;;;;;;;41.33;6.65;;;9.50;99.90;;;;;;6283701;22;20023;-85
2021/12/01 04:11:52;;;;;;;33.05;6.97;;;9.50;99.90;;;;;;6310798;22;20065;-82
2021/12/01 04:14:18;;;;;;;32.92;5.78;;;9.50;99.90;;;;;;6283721;22;20384;-81
2021/12/01 04:16:44;;;;;;;39.38;7.18;;;9.40;99.90;;;;;;6282988;22;20007;-83
2021/12/01 04:19:10;;;;;;;38.53;6.55;;;9.40;99.90;;;;;;6309705;22;20023;-82
2021/12/01 04:21:36;;;;;;;35.33;7.18;;;9.40;99.90;;;;;;6309500;22;20352;-84
2021/12/01 04:24:02;;;;;;;27.58;5.90;;;9.40;99.90;;;;;;6283827;22;20015;-87
2021/12/01 04:26:31;;;;;;;33.35;6.60;;;9.50;99.90;;;;;;6309903;22;20050;-82
2021/12/01 04:28:57;;;;;;;39.13;6.85;;;9.50;99.90;;;;;;6309471;22;20408;-84
2021/12/01 04:31:23;;;;;;;37.25;6.78;;;9.50;99.90;;;;;;6309304;22;20057;-85
2021/12/01 04:33:48;;;;;;;29.08;6.28;;;9.50;99.90;;;;;;6283680;22;20304;-83
2021/12/01 04:36:17;;;;;;;26.33;5.38;;;9.50;99.90;;;;;;6310271;22;20011;-83
2021/12/01 04:38:43;;;;;;;27.40;5.95;;;9.60;99.90;;;;;;6307923;22;20428;-84
2021/12/01 04:41:12;;;;;;;37.03;6.95;;;9.60;99.90;;;;;;6283292;22;20026;-83
2021/12/01 04:43:38;;;;;;;30.17;5.72;;;9.50;99.90;;;;;;6309607;22;20403;-81
2021/12/01 04:46:05;;;;;;;25.27;5.53;;;9.60;99.90;;;;;;6283440;22;20023;-81
2021/12/01 04:48:31;;;;;;;28.75;6.40;;;9.60;99.90;;;;;;6309118;22;20026;-82
2021/12/01 04:50:57;;;;;;;22.02;6.60;;;9.50;99.90;;;;;;6283627;22;20401;-83
2021/12/01 04:53:25;;;;;;;18.67;6.43;;;9.50;99.90;;;;;;6309200;22;20104;-84
2021/12/01 04:55:52;;;;;;;21.00;5.75;;;9.50;99.90;;;;;;6283660;22;20026;-81
2021/12/01 04:58:17;;;;;;;15.57;5.40;;;9.50;99.90;;;;;;6283212;22;20416;-83
2021/12/01 05:00:43;;;;;;;19.65;5.78;;;9.60;99.90;;;;;;6308700;22;20022;-81
2021/12/01 05:03:08;;;;;;;16.15;4.70;;;9.50;99.90;;;;;;6309007;22;20012;-84
2021/12/01 05:05:35;;;;;;;7.18;4.45;;;9.50;99.90;;;;;;6309673;22;20094;-81
2021/12/01 05:08:01;;;;;;;5.93;3.08;;;9.50;99.90;;;;;;6282779;22;20144;-84
2021/12/01 05:10:26;;;;;;;8.55;3.15;;;9.40;99.90;;;;;;6283415;22;20064;-85
2021/12/01 05:12:52;;;;;;;7.50;2.65;;;9.40;99.90;;;;;;6308493;22;20423;-81
2021/12/01 05:15:19;;;;;;;4.15;2.95;;;9.40;99.90;;;;;;6282985;22;20080;-85
2021/12/01 05:17:44;;;;;;;3.35;2.40;;;9.40;99.90;;;;;;6283220;22;20047;-84
2021/12/01 05:20:11;;;;;;;5.47;2.88;;;9.40;99.90;;;;;;6309890;22;20030;-84
2021/12/01 05:22:38;;;;;;;4.38;2.80;;;9.40;99.90;;;;;;6308358;22;20050;-81
2021/12/01 05:25:05;;;;;;;5.85;2.30;;;9.30;99.90;;;;;;6310058;22;20065;-82
2021/12/01 05:27:31;;;;;;;3.72;2.20;;;9.30;99.90;;;;;;6282862;22;20019;-80
2021/12/01 05:29:59;;;;;;;4.50;2.80;;;9.30;99.90;;;;;;6308689;22;20015;-80
2021/12/01 05:32:25;;;;;;;4.07;2.45;;;9.30;99.90;;;;;;6308766;22;20022;-80
2021/12/01 05:34:51;;;;;;;4.40;1.70;;;9.20;99.90;;;;;;6308525;22;20023;-84
2021/12/01 05:37:16;;;;;;;1.90;1.02;;;9.20;99.90;;;;;;6308458;22;20050;-81
2021/12/01 05:39:45;;;;;;;2.15;1.02;;;9.10;99.90;;;;;;6308982;22;20408;-84
2021/12/01 05:42:12;;;;;;;3.75;2.03;;;9.10;99.90;;;;;;6308208;22;20396;-83
2021/12/01 05:44:39;;;;;;;8.18;2.78;;;9.10;99.90;;;;;;6309470;22;20424;-80
2021/12/01 05:47:05;;;;;;;2.72;2.08;;;9.10;99.90;;;;;;6282392;22;20020;-81
2021/12/01 05:49:31;;;;;;;3.35;1.40;;;9.10;99.90;;;;;;6309731;22;20066;-80
2021/12/01 05:51:56;;;;;;;5.95;1.58;;;9.10;99.90;;;;;;6308498;22;20076;-80
2021/12/01 05:54:22;;;;;;;3.75;1.38;;;9.00;99.90;;;;;;6308538;22;20011;-83
2021/12/01 05:56:48;;;;;;;2.90;1.08;;;9.10;99.90;;;;;;6307920;22;20403;-81
2021/12/01 05:59:15;;;;;;;2.00;1.50;;;9.00;99.90;;;;;;6308388;22;20486;-82
2021/12/01 06:01:40;;;;;;;1.80;1.70;;;9.00;99.90;;;;;;6308322;22;20033;-81
2021/12/01 06:04:06;;;;;;;2.65;2.13;;;8.90;99.90;;;;;;6308409;22;20046;-82
2021/12/01 06:06:33;;;;;;;5.10;2.70;;;8.90;99.90;;;;;;6282762;22;20320;-79
2021/12/01 06:08:58;;;;;;;2.33;1.92;;;9.00;99.90;;;;;;6308027;22;20011;-84
2021/12/01 06:11:24;;;;;;;6.78;2.60;;;9.00;99.90;;;;;;6308324;22;20023;-80
2021/12/01 06:13:52;;;;;;;4.00;1.77;;;9.00;99.90;;;;;;6308975;22;20442;-81
2021/12/01 06:16:23;;;;;;;3.90;2.05;;;8.90;99.90;;;;;;6282693;22;20015;-83
2021/12/01 06:18:49;;;;;;;7.90;2.08;;;8.90;99.90;;;;;;6308954;22;20047;-82
2021/12/01 06:21:15;;;;;;;8.10;2.50;;;8.90;99.90;;;;;;6308503;22;20015;-82
2021/12/01 06:23:40;;;;;;;7.70;3.30;;;8.90;99.90;;;;;;6282644;22;20086;-80
2021/12/01 06:26:06;;;;;;;11.20;4.50;;;9.00;99.90;;;;;;6307999;22;20057;-77
2021/12/01 06:28:32;;;;;;;8.15;3.97;;;9.00;99.90;;;;;;6307303;22;20467;-79
2021/12/01 06:30:57;;;;;;;14.57;4.45;;;8.90;99.90;;;;;;6308168;22;20019;-81
2021/12/01 06:33:23;;;;;;;8.38;4.50;;;9.00;99.90;;;;;;6282586;22;20066;-80
2021/12/01 06:35:50;;;;;;;13.48;3.83;;;9.00;99.90;;;;;;6282785;22;20076;-83
2021/12/01 06:38:16;;;;;;;8.57;2.90;;;9.00;99.90;;;;;;6308133;22;20039;-81
2021/12/01 06:40:42;;;;;;;8.90;3.15;;;9.00;99.90;;;;;;6307915;22;20081;-80
2021/12/01 06:43:08;;;;;;;15.70;3.15;;;9.00;99.90;;;;;;6308017;22;20015;-80
2021/12/01 06:45:33;;;;;;;10.57;2.95;;;9.10;99.90;;;;;;6282151;22;20015;-80
2021/12/01 06:47:59;;;;;;;12.30;3.53;;;9.10;99.90;;;;;;6307541;22;20015;-81
2021/12/01 06:50:25;;;;;;;28.38;3.22;;;9.10;99.90;;;;;;6307542;22;20019;-83
2021/12/01 06:52:50;;;;;;;11.77;3.42;;;9.00;99.90;;;;;;6308364;22;20022;-83
2021/12/01 06:55:16;;;;;;;14.02;3.28;;;9.00;99.90;;;;;;6307278;22;20376;-82
2021/12/01 06:57:42;;;;;;;10.43;3.85;;;9.00;99.90;;;;;;6282530;22;20008;-81
2021/12/01 07:00:12;;;;;;;17.25;4.07;;;9.00;99.90;;;;;;6281749;22;20029;-81
2021/12/01 07:02:38;;;;;;;23.33;5.05;;;9.00;99.90;;;;;;6283558;22;20026;-79
2021/12/01 07:05:04;;;;;;;10.25;3.85;;;9.10;99.90;;;;;;6284334;22;20311;-80
2021/12/01 07:07:30;;;;;;;16.50;4.57;;;9.10;99.90;;;;;;6284266;22;20011;-83
2021/12/01 07:09:55;;;;;;;21.67;5.22;;;9.00;99.90;;;;;;6309636;22;20368;-81
2021/12/01 07:12:22;;;;;;;20.20;4.32;;;9.00;99.90;;;;;;6284056;22;20012;-81
2021/12/01 07:14:48;;;;;;;16.92;4.35;;;9.10;99.90;;;;;;6310341;22;20058;-80
2021/12/01 07:17:14;;;;;;;19.17;4.18;;;9.00;99.90;;;;;;6284169;22;20403;-80
2021/12/01 07:19:40;;;;;;;18.30;4.53;;;9.00;99.90;;;;;;6309608;22;20021;-82
2021/12/01 07:22:05;;;;;;;19.65;4.90;;;9.00;99.90;;;;;;6309928;22;20011;-80
2021/12/01 07:24:31;;;;;;;28.73;5.28;;;9.00;99.90;;;;;;6283667;22;20019;-81
2021/12/01 07:26:57;;;;;;;24.50;4.82;;;9.10;99.90;;;;;;6310179;22;20069;-81
2021/12/01 07:29:23;;;;;;;25.98;5.93;;;9.10;99.90;;;;;;6309511;22;20073;-81
2021/12/01 07:31:48;;;;;;;19.42;4.75;;;9.10;99.90;;;;;;6309915;22;20019;-81
2021/12/01 07:34:14;;;;;;;20.80;4.50;;;9.10;99.90;;;;;;6310055;22;20027;-80
2021/12/01 07:36:40;;;;;;;13.88;3.95;;;9.10;99.90;;;;;;6310829;22;20479;-81
2021/12/01 07:39:06;;;;;;;18.83;4.22;;;9.10;99.90;;;;;;6283792;22;20054;-81
2021/12/01 07:41:32;;;;;;;19.90;5.15;;;9.00;99.90;;;;;;6258245;22;20420;-83
2021/12/01 07:43:57;;;;;;;17.45;4.00;;;9.00;99.90;;;;;;6283848;22;20042;-82
2021/12/01 07:46:23;;;;;;;19.02;4.15;;;9.10;99.90;;;;;;6258551;22;20015;-81
2021/12/01 07:48:49;;;;;;;14.35;3.17;;;9.10;99.90;;;;;;6284031;22;20011;-82
2021/12/01 07:51:15;;;;;;;15.18;3.33;;;9.00;99.90;;;;;;6284038;22;20015;-80
2021/12/01 07:53:41;;;;;;;18.08;4.15;;;8.90;99.90;;;;;;6258046;22;20415;-80
2021/12/01 07:56:07;;;;;;;18.83;3.60;;;8.70;99.90;;;;;;6284034;22;20160;-80
2021/12/01 07:58:33;;;;;;;21.63;4.28;;;8.50;99.90;;;;;;6283783;22;20438;-80
2021/12/01 08:00:58;;;;;;;18.58;4.13;;;8.40;99.90;;;;;;6258240;22;20094;-79
2021/12/01 08:03:24;;;;;;;21.38;4.45;;;8.30;99.90;;;;;;6258146;22;20019;-79
2021/12/01 08:05:50;;;;;;;26.02;5.22;;;8.20;99.90;;;;;;6284101;22;20467;-80
2021/12/01 08:08:15;;;;;;;21.38;4.45;;;8.10;99.90;;;;;;6283241;22;20030;-80
2021/12/01 08:10:41;;;;;;;13.90;3.90;;;8.10;99.90;;;;;;6258880;22;20022;-79
2021/12/01 08:13:07;;;;;;;22.98;4.43;;;8.10;99.90;;;;;;6283224;22;20431;-81
2021/12/01 08:15:33;;;;;;;33.08;6.03;;;8.00;99.90;;;;;;6283476;22;20118;-81
2021/12/01 08:17:59;;;;;;;26.95;4.68;;;7.90;99.90;;;;;;6258439;22;20023;-79
2021/12/01 08:20:25;;;;;;;25.77;5.75;;;7.90;99.90;;;;;;6258100;22;20011;-79
2021/12/01 08:22:51;;;;;;;37.28;5.18;;;8.00;99.90;;;;;;6257234;22;20489;-79
2021/12/01 08:25:17;;;;;;;30.63;6.32;;;8.00;99.90;;;;;;6283615;22;20015;-80
2021/12/01 08:27:43;;;;;;;19.10;4.15;;;8.10;99.90;;;;;;6310680;22;20066;-80
2021/12/01 08:30:09;;;;;;;25.95;4.40;;;8.10;99.90;;;;;;6258135;22;20019;-81
2021/12/01 08:32:35;;;;;;;21.80;4.22;;;8.10;99.90;;;;;;6283199;22;20015;-80
2021/12/01 08:35:00;;;;;;;22.58;3.60;;;8.20;99.90;;;;;;6283807;22;20094;-82
2021/12/01 08:37:26;;;;;;;15.80;3.75;;;8.20;99.90;;;;;;6265846;22;20015;-82
2021/12/01 08:39:52;;;;;;;15.68;3.33;;;8.20;99.90;;;;;;6283177;22;20023;-81
2021/12/01 08:42:20;;;;;;;21.95;4.55;;;8.10;99.90;;;;;;6309777;22;20080;-80
2021/12/01 08:44:46;;;;;;;21.08;3.80;;;8.10;99.90;;;;;;6283947;22;20020;-81
2021/12/01 08:47:14;;;;;;;24.67;5.25;;;8.10;99.90;;;;;;6283386;22;20068;-82
2021/12/01 08:49:40;;;;;;;20.35;4.15;;;8.10;99.90;;;;;;6309055;22;20439;-82
2021/12/01 08:52:06;;;;;;;22.40;3.33;;;8.10;99.90;;;;;;6334952;22;20039;-79
2021/12/01 08:54:32;;;;;;;19.58;4.15;;;8.10;99.90;;;;;;6308825;22;20051;-79
2021/12/01 08:56:58;;;;;;;25.95;4.63;;;8.00;99.90;;;;;;6283474;22;20030;-80
2021/12/01 08:59:23;;;;;;;24.60;4.68;;;8.10;99.90;;;;;;6309151;22;20011;-79
2021/12/01 09:01:49;;;;;;;25.70;4.05;;;8.00;99.90;;;;;;6309044;22;20299;-79
2021/12/01 09:04:15;;;;;;;28.70;4.90;;;8.00;99.90;;;;;;6308751;22;20022;-80
2021/12/01 09:06:41;;;;;;;30.38;5.13;;;7.90;99.90;;;;;;6282878;22;20008;-78
2021/12/01 09:09:07;;;;;;;24.20;4.22;;;7.90;99.90;;;;;;6335373;22;20431;-79
2021/12/01 09:11:33;;;;;;;39.90;6.88;;;7.90;99.90;;;;;;6283193;22;20319;-80
2021/12/01 09:13:59;;;;;;;29.50;4.55;;;7.90;99.90;;;;;;6309299;22;20050;-80
2021/12/01 09:16:25;;;;;;;26.25;4.07;;;7.90;99.90;;;;;;6308504;22;20319;-78
2021/12/01 09:18:51;;;;;;;17.33;3.53;;;7.90;99.90;;;;;;6308771;22;20015;-82
2021/12/01 09:21:18;;;;;;;30.45;4.53;;;7.90;99.90;;;;;;6308244;22;20436;-82
2021/12/01 09:23:44;;;;;;;21.05;3.92;;;7.90;99.90;;;;;;6308902;22;20015;-80
2021/12/01 09:26:10;;;;;;;22.45;4.05;;;7.90;99.90;;;;;;6308777;22;20047;-81
2021/12/01 09:28:36;;;;;;;25.35;3.75;;;7.90;99.90;;;;;;6308790;22;20022;-80
2021/12/01 09:31:02;;;;;;;33.33;6.47;;;8.00;99.90;;;;;;6308682;22;20419;-81
2021/12/01 09:33:29;;;;;;;31.92;4.80;;;7.90;99.90;;;;;;6308241;22;20019;-79
2021/12/01 09:35:55;;;;;;;29.70;5.25;;;8.00;99.90;;;;;;6282826;22;20007;-80
2021/12/01 09:38:21;;;;;;;36.20;4.95;;;7.90;99.90;;;;;;6308670;22;20102;-81
2021/12/01 09:40:50;;;;;;;29.75;5.60;;;8.00;99.90;;;;;;6282544;22;20015;-82
2021/12/01 09:43:17;;;;;;;36.38;6.32;;;8.00;99.90;;;;;;6308377;22;20415;-82
2021/12/01 09:45:43;;;;;;;22.25;4.20;;;8.10;99.90;;;;;;6282173;22;20026;-83
2021/12/01 09:48:09;;;;;;;27.48;5.30;;;8.10;99.90;;;;;;6308164;22;20015;-82
2021/12/01 09:50:34;;;;;;;35.10;6.32;;;8.10;99.90;;;;;;6308117;22;20023;-80
2021/12/01 09:53:00;;;;;;;23.75;4.18;;;8.10;99.90;;;;;;6308220;22;20391;-79
2021/12/01 09:55:26;;;;;;;23.90;4.40;;;8.10;99.90;;;;;;6308716;22;20019;-80
2021/12/01 09:58:05;;;;;;;24.95;5.32;;;8.00;99.90;;;;;;6308042;22;20011;-79
2021/12/01 10:00:34;;;;;;;30.33;6.18;;;8.00;99.90;;;;;;6282862;22;20380;-77
2021/12/01 10:03:00;;;;;;;30.58;5.18;;;7.90;99.90;;;;;;6308172;22;20054;-78
2021/12/01 10:05:47;;;;;;;20.55;4.60;;;7.90;99.90;;;;;;6308305;22;20432;-80
2021/12/01 10:08:21;;;;;;;14.15;3.03;;;7.80;99.90;;;;;;6308760;22;20323;-81
2021/12/01 10:10:47;;;;;;;15.75;3.25;;;7.60;99.90;;;;;;6308484;22;20099;-79
2021/12/01 10:13:13;;;;;;;14.95;2.63;;;7.50;99.90;;;;;;6308029;22;20072;-79
2021/12/01 10:15:39;;;;;;;23.35;3.33;;;7.40;99.90;;;;;;6308056;22;20029;-79
2021/12/01 10:18:14;;;;;;;22.23;4.25;;;7.40;99.90;;;;;;6308657;22;20039;-80
2021/12/01 10:20:40;;;;;;;16.50;3.08;;;7.40;99.90;;;;;;6309557;22;20086;-79
2021/12/01 10:23:11;;;;;;;36.67;5.85;;;7.50;99.90;;;;;;6307891;22;20022;-80
2021/12/01 10:25:37;;;;;;;40.63;6.03;;;7.60;99.90;;;;;;6308359;22;20040;-79
2021/12/01 10:28:03;;;;;;;36.45;7.15;;;7.70;99.90;;;;;;6308059;22;20011;-79
2021/12/01 10:30:43;;;;;;;23.85;5.25;;;7.80;99.90;;;;;;6308320;22;20111;-80
2021/12/01 10:33:15;;;;;;;27.40;4.72;;;7.80;99.90;;;;;;6282501;22;20039;-78
2021/12/01 10:35:41;;;;;;;18.00;3.90;;;7.80;99.90;;;;;;6309399;22;20015;-80
2021/12/01 10:38:08;;;;;;;26.83;6.43;;;7.80;99.90;;;;;;6309489;22;20399;-80
2021/12/01 10:40:35;;;;;;;24.55;4.38;;;8.00;99.90;;;;;;6273627;22;20023;-78
2021/12/01 10:43:11;;;;;;;25.92;4.88;;;7.90;99.90;;;;;;6308313;22;20082;-77
2021/12/01 10:45:46;;;;;;;20.92;5.10;;;8.10;99.90;;;;;;6282435;22;20411;-78
2021/12/01 10:48:20;;;;;;;29.38;4.95;;;8.20;99.90;;;;;;6308321;22;20099;-78
2021/12/01 10:50:46;;;;;;;17.88;3.90;;;8.20;99.90;;;;;;6308128;22;20022;-78
2021/12/01 10:53:14;;;;;;;22.52;5.07;;;8.30;99.90;;;;;;6307699;22;20303;-80
2021/12/01 10:55:45;;;;;;;33.40;6.13;;;8.30;99.90;;;;;;6308212;22;20411;-80
2021/12/01 10:58:11;;;;;;;36.08;6.60;;;8.30;99.90;;;;;;6282634;22;20015;-78
2021/12/01 11:00:43;;;;;;;27.25;5.93;;;8.30;99.90;;;;;;6326763;22;20084;-79
2021/12/01 11:03:12;;;;;;;25.33;6.40;;;8.40;99.90;;;;;;6282048;22;20030;-77
2021/12/01 11:05:42;;;;;;;29.27;6.60;;;8.30;99.90;;;;;;6307767;22;20368;-81
2021/12/01 11:08:19;;;;;;;26.85;6.30;;;8.20;99.90;;;;;;6308172;22;20076;-78
2021/12/01 11:11:11;;;;;;;28.88;6.50;;;8.00;99.90;;;;;;6307976;22;20125;-78
2021/12/01 11:13:44;;;;;;;30.63;5.90;;;7.90;99.90;;;;;;6288487;22;20083;-79
2021/12/01 11:16:10;;;;;;;31.58;5.78;;;7.80;99.90;;;;;;6308753;22;20011;-78
2021/12/01 11:18:46;;;;;;;33.78;7.45;;;7.80;99.90;;;;;;6333747;22;20028;-78
2021/12/01 11:21:15;;;;;;;29.95;5.78;;;7.80;99.90;;;;;;6307728;22;20025;-80
2021/12/01 11:23:53;;;;;;;26.10;6.20;;;7.70;99.90;;;;;;6281821;22;20018;-80
2021/12/01 11:26:26;;;;;;;36.42;6.55;;;7.60;99.90;;;;;;6281994;22;20019;-80
2021/12/01 11:28:53;;;;;;;26.63;4.90;;;7.60;99.90;;;;;;6307980;22;20026;-81
2021/12/01 11:31:23;;;;;;;26.83;6.65;;;7.40;99.90;;;;;;6307996;22;20015;-79
2021/12/01 11:33:54;;;;;;;30.60;5.95;;;7.40;99.90;;;;;;6282200;22;20030;-80
2021/12/01 11:36:25;;;;;;;32.30;5.07;;;7.40;99.90;;;;;;6309342;22;20312;-78
2021/12/01 11:38:53;;;;;;;25.75;5.13;;;7.40;99.90;;;;;;6282116;22;20408;-79
2021/12/01 11:41:20;;;;;;;29.50;5.65;;;7.40;99.90;;;;;;6309081;22;20312;-78
2021/12/01 11:43:46;;;;;;;20.95;4.22;;;7.50;99.90;;;;;;6281904;22;20046;-78
2021/12/01 11:46:12;;;;;;;26.83;4.25;;;7.60;99.90;;;;;;6308091;22;20011;-78
2021/12/01 11:48:43;;;;;;;30.85;5.97;;;7.60;99.90;;;;;;6308671;22;20072;-77
2021/12/01 11:51:31;;;;;;;28.38;6.22;;;7.70;99.90;;;;;;6310139;22;20030;-79
2021/12/01 11:54:11;;;;;;;22.95;5.30;;;7.90;99.90;;;;;;6310687;22;20431;-77
2021/12/01 11:56:39;;;;;;;23.02;5.20;;;8.10;99.90;;;;;;6309428;22;20019;-78
2021/12/01 11:59:15;;;;;;;14.80;4.20;;;8.10;99.90;;;;;;6309363;22;20039;-79
2021/12/01 12:01:41;;;;;;;15.52;4.75;;;8.00;99.90;;;;;;6310696;22;20011;-78
2021/12/01 12:04:07;;;;;;;17.48;4.60;;;8.10;99.90;;;;;;6309273;22;20096;-78
2021/12/01 12:06:43;;;;;;;17.23;4.38;;;8.10;99.90;;;;;;6309815;22;20023;-79
2021/12/01 12:09:10;;;;;;;15.25;3.90;;;8.10;99.90;;;;;;6310100;22;20015;-77
2021/12/01 12:11:46;;;;;;;19.35;3.90;;;8.10;99.90;;;;;;6309633;22;20030;-79
2021/12/01 12:14:16;;;;;;;23.38;4.68;;;8.00;99.90;;;;;;6310323;22;20422;-78
2021/12/01 12:17:01;;;;;;;19.75;4.78;;;7.90;99.90;;;;;;6309509;22;20077;-78
2021/12/01 12:20:03;;;;;;;18.25;4.45;;;7.70;99.90;;;;;;6284110;22;20011;-77
2021/12/01 12:22:36;;;;;;;17.95;4.82;;;7.60;99.90;;;;;;6283809;22;20088;-78
2021/12/01 12:25:08;;;;;;;31.88;5.03;;;7.70;99.90;;;;;;6309435;22;20015;-78
2021/12/01 12:27:38;;;;;;;22.23;4.35;;;7.60;99.90;;;;;;6309607;22;20029;-77
2021/12/01 12:30:35;;;;;;;23.85;4.80;;;7.70;99.90;;;;;;6309208;22;20026;-77
2021/12/01 12:33:47;;;;;;;25.85;4.65;;;7.80;99.90;;;;;;6308774;22;20019;-77
2021/12/01 12:36:13;;;;;;;17.70;4.28;;;7.80;99.90;;;;;;6161065;23;20021;-77
2021/12/01 12:39:00;;;;;;;14.20;4.47;;;7.80;99.90;;;;;;6289618;22;20311;-76
2021/12/01 12:41:25;;;;;;;16.73;3.58;;;7.80;99.90;;;;;;6308958;22;20019;-78
2021/12/01 12:43:51;;;;;;;17.77;3.78;;;7.80;99.90;;;;;;6308633;22;20098;-78
2021/12/01 12:46:19;;;;;;;22.38;4.18;;;7.80;99.90;;;;;;6308992;22;20458;-79
2021/12/01 12:48:52;;;;;;;25.63;4.28;;;7.70;99.90;;;;;;6283583;22;20068;-77
2021/12/01 12:51:30;;;;;;;30.52;4.95;;;7.70;99.90;;;;;;6309864;22;20390;-76
2021/12/01 12:54:06;;;;;;;35.63;5.47;;;7.80;99.90;;;;;;6310212;22;20021;-80
2021/12/01 12:56:34;;;;;;;23.65;5.35;;;7.70;99.90;;;;;;6310167;22;20132;-76
2021/12/01 12:59:19;;;;;;;24.05;4.75;;;7.70;99.90;;;;;;6309012;22;20022;-77